Corton, West Virginia
Current Conditions -  °F | °C
As of 10:54 AM on Monday 22 Dec 2014 (Local Time) from KCRW Reporting Station
Broken Clouds Broken Clouds  
Wind Chill: 45°   Ceiling: 5000
Heat Index: 47°   Visibility: 10mi
Dew Point: 35°   Wind: 5mph
Humidity: 63%   Direction: NA
Pressure: 30.03"   Gusts: NA
Location:  38.4083°N, 81.3392°W
Report Text: KCRW 221554Z VRB04KT 10SM BKN050 BKN130 08/02 A3003 RMK AO2 SLP176 T00830017
Loading
Personal Weather Stations






























Interactive Weather Map New forecast layout! Learn more

10-Day Weather Forecast

Advertisements
Track Severe Weather on mobile